createdAt,value
2023-05-12T00:01:38.397Z,8.55
2023-05-12T00:04:43.132Z,8.07
2023-05-12T00:07:47.844Z,8.40
2023-05-12T00:10:52.427Z,9.32
2023-05-12T00:13:57.124Z,8.38
2023-05-12T00:17:04.626Z,7.60
2023-05-12T00:20:10.142Z,7.90
2023-05-12T00:23:14.567Z,8.73
2023-05-12T00:26:19.398Z,7.82
2023-05-12T00:29:24.672Z,7.45
2023-05-12T00:32:29.650Z,7.05
2023-05-12T00:35:34.530Z,7.97
2023-05-12T00:38:39.204Z,6.80
2023-05-12T00:41:44.783Z,6.40
2023-05-12T00:44:50.419Z,5.22
2023-05-12T00:47:55.445Z,5.03
2023-05-12T00:51:02.550Z,5.15
2023-05-12T00:54:06.914Z,4.63
2023-05-12T00:57:12.341Z,4.72
2023-05-12T01:00:18.646Z,4.30
2023-05-12T01:03:30.094Z,4.07
2023-05-12T01:06:56.502Z,4.20
2023-05-12T01:10:01.515Z,4.57
2023-05-12T01:13:09.145Z,3.10
2023-05-12T01:16:16.636Z,4.47
2023-05-12T01:19:41.668Z,4.05
2023-05-12T01:22:49.230Z,3.28
2023-05-12T01:25:55.678Z,3.97
2023-05-12T01:29:02.633Z,3.45
2023-05-12T01:32:08.270Z,3.75
2023-05-12T01:35:12.914Z,2.95
2023-05-12T01:38:24.016Z,3.67
2023-05-12T01:41:29.434Z,3.47
2023-05-12T01:44:34.388Z,4.25
2023-05-12T01:47:39.226Z,4.15
2023-05-12T01:50:45.834Z,5.18
2023-05-12T01:53:55.643Z,5.45
2023-05-12T01:57:01.128Z,5.40
2023-05-12T02:00:06.621Z,5.07
2023-05-12T02:03:18.150Z,5.15
2023-05-12T02:06:23.013Z,5.15
2023-05-12T02:09:28.222Z,5.50
2023-05-12T02:12:37.674Z,6.07
2023-05-12T02:15:42.256Z,6.20
2023-05-12T02:18:46.940Z,8.40
2023-05-12T02:21:51.937Z,7.47
2023-05-12T02:24:56.272Z,7.68
2023-05-12T02:28:00.843Z,8.15
2023-05-12T02:31:05.234Z,8.13
2023-05-12T02:34:09.833Z,8.10
2023-05-12T02:37:15.000Z,9.18
2023-05-12T02:40:21.201Z,8.95
2023-05-12T02:43:26.507Z,7.88
2023-05-12T02:46:31.562Z,8.68
2023-05-12T02:49:36.546Z,13.32
2023-05-12T02:52:40.986Z,10.27
2023-05-12T02:55:45.933Z,11.40
2023-05-12T02:58:50.900Z,15.48
2023-05-12T03:01:55.858Z,11.73
2023-05-12T03:05:01.011Z,12.57
2023-05-12T03:08:05.721Z,14.15
2023-05-12T03:11:11.253Z,13.95
2023-05-12T03:14:16.041Z,13.52
2023-05-12T03:17:21.507Z,14.95
2023-05-12T03:20:27.191Z,15.02
2023-05-12T03:23:31.884Z,16.38
2023-05-12T03:26:36.278Z,14.55
2023-05-12T03:29:41.000Z,15.10
2023-05-12T03:32:46.254Z,14.38
2023-05-12T03:35:51.637Z,18.25
2023-05-12T03:38:56.246Z,17.60
2023-05-12T03:42:00.995Z,18.77
2023-05-12T03:45:07.073Z,18.60
2023-05-12T03:48:11.356Z,19.17
2023-05-12T03:51:15.743Z,22.02
2023-05-12T03:54:20.090Z,18.35
2023-05-12T03:57:24.637Z,26.00
2023-05-12T04:00:29.548Z,25.33
2023-05-12T04:03:34.558Z,27.60
2023-05-12T04:06:39.108Z,24.17
2023-05-12T04:09:44.262Z,26.95
2023-05-12T04:12:48.874Z,21.60
2023-05-12T04:15:58.435Z,29.13
2023-05-12T04:19:03.743Z,31.27
2023-05-12T04:22:08.749Z,20.92
2023-05-12T04:25:13.530Z,33.70
2023-05-12T04:28:18.113Z,30.15
2023-05-12T04:31:23.591Z,31.77
2023-05-12T04:34:28.719Z,36.85
2023-05-12T04:37:33.864Z,34.42
2023-05-12T04:40:39.086Z,29.63
2023-05-12T04:46:53.469Z,30.60
2023-05-12T04:49:58.256Z,32.45
2023-05-12T04:53:02.975Z,34.78
2023-05-12T04:56:08.220Z,32.28
2023-05-12T04:59:16.065Z,32.38
2023-05-12T05:02:22.245Z,35.42
2023-05-12T05:05:27.085Z,35.85
2023-05-12T05:08:32.017Z,37.35
2023-05-12T05:11:36.778Z,34.17
2023-05-12T05:14:41.707Z,31.27
2023-05-12T05:17:49.498Z,32.15
2023-05-12T05:20:58.385Z,34.50
2023-05-12T05:24:03.749Z,33.03
2023-05-12T05:27:08.203Z,36.88
2023-05-12T05:30:13.286Z,30.20
2023-05-12T05:33:18.717Z,31.88
2023-05-12T05:36:26.756Z,30.38
2023-05-12T05:39:31.537Z,26.00
2023-05-12T05:42:36.256Z,27.45
2023-05-12T05:45:40.708Z,33.95
2023-05-12T05:48:45.833Z,29.45
2023-05-12T05:51:51.442Z,30.55
2023-05-12T05:54:57.185Z,34.38
2023-05-12T05:58:04.414Z,35.97
2023-05-12T06:01:09.328Z,34.50
2023-05-12T06:04:14.817Z,35.33
2023-05-12T06:07:21.991Z,31.05
2023-05-12T06:10:27.142Z,33.83
2023-05-12T06:13:32.784Z,35.03
2023-05-12T06:16:39.632Z,32.53
2023-05-12T06:19:48.113Z,31.98
2023-05-12T06:22:52.750Z,37.30
2023-05-12T06:25:57.277Z,36.35
2023-05-12T06:29:02.278Z,32.92
2023-05-12T06:32:08.056Z,27.00
2023-05-12T06:35:12.988Z,26.63
2023-05-12T06:38:17.264Z,26.77
2023-05-12T06:41:25.012Z,29.77
2023-05-12T06:44:29.496Z,31.13
2023-05-12T06:47:34.054Z,23.17
2023-05-12T06:50:38.946Z,28.65
2023-05-12T06:53:43.797Z,22.55
2023-05-12T06:56:48.276Z,20.60
2023-05-12T06:59:53.376Z,20.10
2023-05-12T07:02:57.972Z,19.45
2023-05-12T07:06:02.819Z,18.17
2023-05-12T07:09:07.647Z,16.92
2023-05-12T07:12:12.429Z,16.77
2023-05-12T07:15:17.755Z,15.25
2023-05-12T07:18:22.209Z,16.60
2023-05-12T07:21:26.806Z,14.00
2023-05-12T07:24:31.760Z,13.52
2023-05-12T07:27:36.852Z,14.13
2023-05-12T07:30:41.364Z,12.85
2023-05-12T07:33:45.958Z,13.80
2023-05-12T07:36:50.683Z,13.50
2023-05-12T07:39:55.464Z,14.30
2023-05-12T07:42:59.902Z,13.82
2023-05-12T07:46:04.831Z,12.10
2023-05-12T07:49:09.600Z,11.85
2023-05-12T07:52:14.474Z,14.30
2023-05-12T07:55:21.664Z,11.05
2023-05-12T07:58:26.429Z,10.60
2023-05-12T08:01:30.836Z,11.80
2023-05-12T08:04:35.945Z,9.13
2023-05-12T08:07:43.554Z,7.85
2023-05-12T08:10:48.482Z,6.93
2023-05-12T08:13:53.683Z,8.40
2023-05-12T08:16:58.400Z,6.43
2023-05-12T08:20:07.077Z,5.63
2023-05-12T08:23:11.664Z,6.18
2023-05-12T08:26:15.970Z,6.05
2023-05-12T08:29:20.439Z,5.47
2023-05-12T08:32:24.890Z,5.80
2023-05-12T08:35:30.390Z,5.30
2023-05-12T08:38:34.732Z,6.40
2023-05-12T08:41:44.748Z,4.60
2023-05-12T08:44:49.970Z,6.10
2023-05-12T08:47:55.726Z,5.68
2023-05-12T08:51:03.387Z,5.57
2023-05-12T08:54:10.664Z,5.40
2023-05-12T08:57:16.188Z,5.68
2023-05-12T09:00:21.978Z,5.88
2023-05-12T09:03:28.966Z,4.63
2023-05-12T09:06:34.781Z,4.20
2023-05-12T09:09:43.438Z,4.07
2023-05-12T09:12:52.090Z,3.92
2023-05-12T09:15:59.203Z,5.22
2023-05-12T09:19:06.724Z,3.47
2023-05-12T09:22:14.974Z,5.00
2023-05-12T09:25:21.799Z,2.97
2023-05-12T09:28:36.777Z,3.35
2023-05-12T09:31:54.881Z,2.78
2023-05-12T09:35:05.378Z,3.83
2023-05-12T09:38:12.127Z,3.08
2023-05-12T09:41:23.539Z,3.22
2023-05-12T09:44:31.190Z,2.85
2023-05-12T09:47:38.830Z,2.30
2023-05-12T09:50:49.072Z,3.30
2023-05-12T09:53:53.652Z,3.30
2023-05-12T09:57:05.179Z,3.05
2023-05-12T10:00:34.379Z,2.80
2023-05-12T10:03:52.154Z,4.32
2023-05-12T10:06:58.516Z,3.00
2023-05-12T10:10:08.197Z,5.18
2023-05-12T10:13:14.264Z,3.60
2023-05-12T10:16:19.247Z,3.50
2023-05-12T10:19:26.360Z,2.75
2023-05-12T10:22:32.046Z,4.60
2023-05-12T10:25:36.553Z,3.40
2023-05-12T10:28:42.948Z,3.38
2023-05-12T10:31:48.293Z,3.03
2023-05-12T10:34:52.645Z,3.00
2023-05-12T10:38:00.697Z,3.42
2023-05-12T10:41:07.177Z,3.22
2023-05-12T10:44:12.151Z,3.22
2023-05-12T10:47:17.313Z,4.32
2023-05-12T10:50:29.032Z,5.60
2023-05-12T10:53:47.663Z,4.35
2023-05-12T10:56:59.819Z,3.03
2023-05-12T11:00:05.806Z,5.43
2023-05-12T11:03:15.177Z,3.38
2023-05-12T11:06:21.321Z,2.47
2023-05-12T11:09:27.127Z,2.85
2023-05-12T11:12:33.973Z,2.33
2023-05-12T11:15:39.053Z,3.13
2023-05-12T11:18:43.608Z,3.53
2023-05-12T11:21:48.443Z,2.60
2023-05-12T11:24:53.525Z,3.25
2023-05-12T11:27:58.301Z,3.38
2023-05-12T11:31:03.212Z,3.08
2023-05-12T11:34:13.133Z,2.40
2023-05-12T11:37:21.129Z,2.22
2023-05-12T11:40:26.041Z,3.17
2023-05-12T11:43:30.882Z,3.53
2023-05-12T11:46:35.719Z,2.88
2023-05-12T11:49:53.402Z,4.22
2023-05-12T11:52:58.431Z,3.22
2023-05-12T11:56:03.518Z,2.80
2023-05-12T11:59:07.842Z,3.90
2023-05-12T12:02:21.639Z,6.85
2023-05-12T12:05:26.285Z,5.35
2023-05-12T12:08:31.117Z,3.72
2023-05-12T12:11:36.060Z,3.40
2023-05-12T12:14:41.571Z,3.72
2023-05-12T12:17:45.942Z,3.67
2023-05-12T12:20:50.746Z,3.50
2023-05-12T12:23:55.263Z,4.60
2023-05-12T12:26:59.865Z,6.18
2023-05-12T12:30:04.795Z,5.10
2023-05-12T12:33:09.240Z,3.45
2023-05-12T12:36:13.540Z,3.90
2023-05-12T12:39:19.965Z,4.43
2023-05-12T12:42:24.889Z,4.47
2023-05-12T12:45:29.525Z,4.10
2023-05-12T12:48:34.275Z,4.47
2023-05-12T12:51:45.660Z,3.80
2023-05-12T12:54:51.795Z,3.75
2023-05-12T12:57:56.580Z,5.43
2023-05-12T13:01:02.177Z,4.60
2023-05-12T13:04:06.579Z,3.90
2023-05-12T13:07:11.410Z,3.60
2023-05-12T13:10:16.608Z,4.47
2023-05-12T13:13:21.598Z,6.30
2023-05-12T13:16:26.344Z,3.38
2023-05-12T13:19:30.896Z,4.00
2023-05-12T13:22:35.156Z,3.88
2023-05-12T13:25:39.871Z,4.55
2023-05-12T13:28:44.619Z,3.00
2023-05-12T13:31:49.304Z,4.40
2023-05-12T13:34:53.498Z,4.90
2023-05-12T13:37:57.918Z,3.67
2023-05-12T13:41:03.621Z,3.80
2023-05-12T13:44:08.503Z,4.20
2023-05-12T13:47:12.981Z,4.05
2023-05-12T13:50:17.366Z,5.03
2023-05-12T13:53:21.610Z,6.05
2023-05-12T13:56:25.984Z,5.15
2023-05-12T13:59:31.343Z,3.97
2023-05-12T14:02:36.091Z,4.03
2023-05-12T14:05:40.801Z,5.07
2023-05-12T14:08:45.083Z,6.80
2023-05-12T14:11:49.706Z,5.55
2023-05-12T14:14:58.188Z,4.35
2023-05-12T14:18:09.576Z,5.20
2023-05-12T14:21:14.177Z,5.22
2023-05-12T14:24:18.950Z,5.38
2023-05-12T14:27:24.024Z,5.95
2023-05-12T14:30:28.797Z,5.38
2023-05-12T14:33:33.404Z,5.43
2023-05-12T14:36:38.076Z,3.53
2023-05-12T14:39:42.705Z,8.48
2023-05-12T14:42:47.916Z,4.00
2023-05-12T14:45:54.715Z,4.25
2023-05-12T14:48:59.574Z,4.07
2023-05-12T14:52:04.799Z,5.30
2023-05-12T14:55:13.920Z,4.53
2023-05-12T14:58:18.648Z,6.07
2023-05-12T15:01:23.294Z,5.63
2023-05-12T15:04:27.943Z,4.47
2023-05-12T15:07:32.843Z,4.53
2023-05-12T15:10:37.264Z,3.92
2023-05-12T15:13:41.944Z,4.05
2023-05-12T15:16:46.602Z,4.25
2023-05-12T15:19:51.249Z,5.28
2023-05-12T15:22:55.544Z,4.50
2023-05-12T15:26:20.809Z,5.55
2023-05-12T15:29:32.503Z,4.18
2023-05-12T15:32:41.062Z,4.13
2023-05-12T15:35:45.822Z,4.13
2023-05-12T15:38:50.263Z,5.35
2023-05-12T15:41:54.489Z,4.38
2023-05-12T15:44:58.975Z,3.60
2023-05-12T15:48:09.318Z,3.45
2023-05-12T15:51:14.201Z,3.67
2023-05-12T15:54:18.761Z,3.83
2023-05-12T15:57:23.555Z,3.65
2023-05-12T16:00:28.160Z,5.80
2023-05-12T16:03:33.020Z,4.32
2023-05-12T16:06:37.389Z,5.43
2023-05-12T16:09:42.157Z,3.38
2023-05-12T16:12:48.002Z,4.60
2023-05-12T16:15:52.718Z,4.35
2023-05-12T16:18:57.610Z,4.13
2023-05-12T16:22:02.128Z,4.47
2023-05-12T16:25:07.328Z,3.70
2023-05-12T16:28:12.493Z,4.28
2023-05-12T16:31:18.818Z,3.35
2023-05-12T16:34:25.147Z,6.80
2023-05-12T16:37:30.081Z,3.60
2023-05-12T16:40:34.674Z,3.40
2023-05-12T16:43:38.836Z,5.93
2023-05-12T16:46:43.493Z,5.85
2023-05-12T16:49:53.366Z,3.90
2023-05-12T16:52:58.194Z,4.50
2023-05-12T16:56:04.131Z,3.90
2023-05-12T16:59:09.036Z,3.30
2023-05-12T17:02:13.511Z,3.30
2023-05-12T17:05:18.696Z,5.07
2023-05-12T17:08:23.096Z,3.53
2023-05-12T17:11:27.775Z,3.55
2023-05-12T17:14:33.233Z,3.78
2023-05-12T17:17:37.824Z,5.78
2023-05-12T17:20:42.283Z,3.90
2023-05-12T17:23:47.130Z,2.90
2023-05-12T17:26:51.777Z,5.03
2023-05-12T17:29:56.756Z,4.70
2023-05-12T17:33:01.853Z,3.17
2023-05-12T17:36:11.573Z,4.50
2023-05-12T17:39:17.607Z,3.22
2023-05-12T17:42:22.486Z,3.00
2023-05-12T17:45:27.632Z,2.85
2023-05-12T17:48:33.167Z,3.30
2023-05-12T17:51:37.645Z,2.55
2023-05-12T17:54:42.336Z,2.90
2023-05-12T17:57:46.887Z,4.07
2023-05-12T18:00:51.903Z,3.45
2023-05-12T18:03:57.070Z,3.78
2023-05-12T18:07:01.992Z,3.75
2023-05-12T18:10:08.932Z,2.58
2023-05-12T18:13:15.628Z,3.40
2023-05-12T18:16:28.666Z,3.28
2023-05-12T18:22:38.347Z,2.92
2023-05-12T18:25:43.300Z,2.90
2023-05-12T18:28:48.255Z,2.90
2023-05-12T18:31:52.891Z,3.22
2023-05-12T18:34:57.792Z,3.40
2023-05-12T18:38:02.707Z,3.03
2023-05-12T18:41:07.849Z,2.25
2023-05-12T18:44:12.547Z,2.83
2023-05-12T18:47:17.550Z,3.10
2023-05-12T18:50:22.374Z,3.70
2023-05-12T18:53:27.348Z,3.28
2023-05-12T18:56:31.786Z,3.05
2023-05-12T18:59:36.525Z,3.97
2023-05-12T19:02:42.443Z,6.10
2023-05-12T19:05:48.941Z,3.33
2023-05-12T19:08:53.891Z,3.08
2023-05-12T19:11:58.698Z,4.07
2023-05-12T19:15:03.071Z,5.15
2023-05-12T19:18:09.105Z,3.47
2023-05-12T19:21:13.920Z,2.45
2023-05-12T19:24:18.511Z,3.20
2023-05-12T19:27:23.461Z,4.05
2023-05-12T19:30:29.388Z,3.47
2023-05-12T19:33:35.158Z,3.75
2023-05-12T19:36:39.985Z,3.80
2023-05-12T19:39:44.696Z,3.17
2023-05-12T19:42:50.454Z,4.10
2023-05-12T19:45:55.286Z,2.78
2023-05-12T19:49:00.465Z,4.53
2023-05-12T19:52:06.642Z,3.10
2023-05-12T19:55:11.484Z,5.55
2023-05-12T19:58:16.109Z,3.90
2023-05-12T20:01:20.704Z,3.40
2023-05-12T20:04:25.570Z,3.78
2023-05-12T20:07:30.401Z,3.38
2023-05-12T20:10:35.001Z,5.43
2023-05-12T20:13:40.123Z,4.00
2023-05-12T20:16:45.282Z,3.80
2023-05-12T20:19:49.864Z,4.25
2023-05-12T20:22:54.472Z,3.95
2023-05-12T20:25:59.157Z,4.95
2023-05-12T20:29:04.085Z,4.80
2023-05-12T20:32:09.025Z,4.20
2023-05-12T20:35:13.769Z,4.10
2023-05-12T20:38:18.478Z,3.70
2023-05-12T20:41:23.281Z,4.95
2023-05-12T20:44:27.915Z,3.42
2023-05-12T20:47:34.974Z,3.83
2023-05-12T20:50:39.732Z,3.67
2023-05-12T20:53:44.568Z,3.53
2023-05-12T20:56:49.273Z,4.30
2023-05-12T20:59:56.756Z,4.30
2023-05-12T21:03:02.940Z,5.82
2023-05-12T21:06:07.995Z,4.75
2023-05-12T21:09:12.374Z,4.18
2023-05-12T21:12:16.887Z,4.18
2023-05-12T21:15:21.761Z,4.43
2023-05-12T21:18:27.160Z,4.57
2023-05-12T21:21:32.615Z,4.57
2023-05-12T21:24:39.208Z,4.35
2023-05-12T21:27:43.922Z,4.72
2023-05-12T21:30:48.845Z,5.00
2023-05-12T21:33:53.782Z,5.50
2023-05-12T21:37:00.263Z,4.00
2023-05-12T21:40:06.063Z,4.32
2023-05-12T21:43:10.715Z,4.95
2023-05-12T21:46:15.371Z,5.18
2023-05-12T21:49:20.964Z,4.78
2023-05-12T21:52:25.539Z,3.92
2023-05-12T21:55:30.262Z,5.22
2023-05-12T21:58:35.170Z,5.32
2023-05-12T22:01:40.032Z,4.60
2023-05-12T22:04:44.585Z,5.10
2023-05-12T22:07:49.504Z,4.78
2023-05-12T22:10:54.283Z,4.68
2023-05-12T22:13:59.189Z,5.70
2023-05-12T22:17:03.970Z,4.63
2023-05-12T22:20:09.465Z,5.03
2023-05-12T22:23:14.065Z,4.97
2023-05-12T22:26:18.547Z,4.28
2023-05-12T22:29:23.565Z,6.30
2023-05-12T22:32:28.909Z,4.40
2023-05-12T22:35:33.544Z,5.20
2023-05-12T22:38:38.242Z,5.07
2023-05-12T22:41:43.057Z,5.10
2023-05-12T22:44:47.804Z,4.82
2023-05-12T22:47:52.222Z,8.05
2023-05-12T22:50:57.021Z,4.93
2023-05-12T22:54:02.136Z,4.95
2023-05-12T22:57:07.128Z,5.68
2023-05-12T23:00:12.621Z,5.00
2023-05-12T23:03:17.334Z,5.38
2023-05-12T23:06:21.796Z,4.78
2023-05-12T23:09:26.747Z,4.78
2023-05-12T23:12:31.242Z,4.80
2023-05-12T23:15:35.724Z,6.05
2023-05-12T23:18:40.693Z,4.35
2023-05-12T23:21:45.007Z,5.70
2023-05-12T23:24:51.217Z,4.68
2023-05-12T23:27:56.183Z,5.45
2023-05-12T23:31:00.557Z,5.65
2023-05-12T23:34:05.076Z,6.60
2023-05-12T23:37:09.989Z,5.13
2023-05-12T23:40:14.460Z,4.80
2023-05-12T23:43:18.884Z,5.38
2023-05-12T23:46:23.967Z,4.88
2023-05-12T23:49:28.712Z,5.55
2023-05-12T23:52:33.673Z,5.10
2023-05-12T23:55:38.381Z,4.25
2023-05-12T23:58:43.253Z,4.75
